createdAt,value
2022-10-31T00:01:28.464Z,10.11
2022-10-31T00:06:30.296Z,10.04
2022-10-31T00:11:32.132Z,10.00
2022-10-31T00:16:34.999Z,9.98
2022-10-31T00:21:36.754Z,9.93
2022-10-31T00:26:38.671Z,9.91
2022-10-31T00:31:40.454Z,9.88
2022-10-31T00:36:42.274Z,9.84
2022-10-31T00:41:48.639Z,9.81
2022-10-31T00:46:50.434Z,9.78
2022-10-31T00:51:56.749Z,9.74
2022-10-31T00:56:58.711Z,9.68
2022-10-31T01:02:00.704Z,9.62
2022-10-31T01:07:02.657Z,9.60
2022-10-31T01:12:04.946Z,9.57
2022-10-31T01:17:06.776Z,9.56
2022-10-31T01:22:08.631Z,9.54
2022-10-31T01:27:10.801Z,9.53
2022-10-31T01:32:12.537Z,9.51
2022-10-31T01:37:14.360Z,9.50
2022-10-31T01:42:23.020Z,9.46
2022-10-31T01:47:35.070Z,9.39
2022-10-31T01:52:41.619Z,9.31
2022-10-31T01:57:47.719Z,9.25
2022-10-31T02:02:52.661Z,9.20
2022-10-31T02:08:00.994Z,9.18
2022-10-31T02:13:07.265Z,9.16
2022-10-31T02:18:11.666Z,9.13
2022-10-31T02:23:34.980Z,9.10
2022-10-31T02:29:24.461Z,9.05
2022-10-31T02:34:46.804Z,9.03
2022-10-31T02:39:54.630Z,9.01
2022-10-31T02:45:13.115Z,8.97
2022-10-31T02:50:24.704Z,8.94
2022-10-31T02:55:26.425Z,8.92
2022-10-31T03:00:40.320Z,8.91
2022-10-31T03:05:50.192Z,8.87
2022-10-31T03:10:58.339Z,8.83
2022-10-31T03:16:17.118Z,8.79
2022-10-31T03:21:29.359Z,8.78
2022-10-31T03:26:31.999Z,8.75
2022-10-31T03:31:40.757Z,8.71
2022-10-31T03:36:45.402Z,8.67
2022-10-31T03:41:55.831Z,8.64
2022-10-31T03:46:58.298Z,8.61
2022-10-31T03:52:13.363Z,8.58
2022-10-31T03:57:24.282Z,8.54
2022-10-31T04:02:31.113Z,8.50
2022-10-31T04:07:40.032Z,8.49
2022-10-31T04:12:50.564Z,8.47
2022-10-31T04:18:00.404Z,8.46
2022-10-31T04:23:04.049Z,8.44
2022-10-31T04:28:06.788Z,8.40
2022-10-31T04:33:09.465Z,8.36
2022-10-31T04:38:11.697Z,8.34
2022-10-31T04:43:14.256Z,8.31
2022-10-31T04:48:18.185Z,8.29
2022-10-31T04:53:20.324Z,8.27
2022-10-31T04:58:48.023Z,8.25
2022-10-31T05:03:49.909Z,8.23
2022-10-31T05:08:52.113Z,8.23
2022-10-31T05:13:55.051Z,8.23
2022-10-31T05:19:16.789Z,8.21
2022-10-31T05:24:37.460Z,8.19
2022-10-31T05:29:39.327Z,8.15
2022-10-31T05:34:41.241Z,8.12
2022-10-31T05:40:14.992Z,8.08
2022-10-31T05:45:19.538Z,8.05
2022-10-31T05:50:30.768Z,8.03
2022-10-31T05:55:42.004Z,8.04
2022-10-31T06:00:47.025Z,8.03
2022-10-31T06:05:52.286Z,8.05
2022-10-31T06:10:57.723Z,8.08
2022-10-31T06:16:19.469Z,8.12
2022-10-31T06:21:21.680Z,8.14
2022-10-31T06:26:24.468Z,8.15
2022-10-31T06:31:26.383Z,8.14
2022-10-31T06:41:35.116Z,8.20
2022-10-31T06:46:37.985Z,8.27
2022-10-31T06:51:51.197Z,8.36
2022-10-31T06:56:53.046Z,8.46
2022-10-31T07:01:54.917Z,8.57
2022-10-31T07:06:57.580Z,8.70
2022-10-31T07:11:59.465Z,8.83
2022-10-31T07:17:01.440Z,8.94
2022-10-31T07:22:12.673Z,9.09
2022-10-31T07:27:15.157Z,9.27
2022-10-31T07:32:18.259Z,9.41
2022-10-31T07:37:28.738Z,9.56
2022-10-31T07:42:39.203Z,9.66
2022-10-31T07:47:53.223Z,9.83
2022-10-31T07:53:15.141Z,10.02
2022-10-31T07:58:19.552Z,10.13
2022-10-31T08:03:21.578Z,10.25
2022-10-31T08:08:42.393Z,10.39
2022-10-31T08:13:44.468Z,10.57
2022-10-31T08:18:49.164Z,10.81
2022-10-31T08:23:51.217Z,11.07
2022-10-31T08:28:55.961Z,11.35
2022-10-31T08:33:58.863Z,11.64
2022-10-31T08:39:38.926Z,11.98
2022-10-31T08:44:40.954Z,12.27
2022-10-31T08:49:43.154Z,12.58
2022-10-31T08:54:45.176Z,12.92
2022-10-31T09:00:06.584Z,13.21
2022-10-31T09:05:41.429Z,13.54
2022-10-31T09:10:46.406Z,13.84
2022-10-31T09:15:50.682Z,14.14
2022-10-31T09:21:01.959Z,14.44
2022-10-31T09:26:05.647Z,14.67
2022-10-31T09:31:17.499Z,14.88
2022-10-31T09:36:32.093Z,15.07
2022-10-31T09:41:43.078Z,15.25
2022-10-31T09:47:01.940Z,15.45
2022-10-31T09:52:20.047Z,15.71
2022-10-31T09:57:30.808Z,16.00
2022-10-31T10:02:38.927Z,16.18
2022-10-31T10:08:00.851Z,16.38
2022-10-31T10:13:36.934Z,16.56
2022-10-31T10:18:53.395Z,16.78
2022-10-31T10:24:34.341Z,16.99
2022-10-31T10:29:48.600Z,17.22
2022-10-31T10:35:00.123Z,17.34
2022-10-31T10:40:12.684Z,17.39
2022-10-31T10:45:36.452Z,17.48
2022-10-31T10:50:50.622Z,17.61
2022-10-31T10:56:01.555Z,17.72
2022-10-31T11:01:12.996Z,17.85
2022-10-31T11:06:23.160Z,18.04
2022-10-31T11:11:29.258Z,18.22
2022-10-31T11:16:38.106Z,18.37
2022-10-31T11:21:43.006Z,18.48
2022-10-31T11:26:47.674Z,18.60
2022-10-31T11:31:53.539Z,18.71
2022-10-31T11:37:00.303Z,18.81
2022-10-31T11:42:08.781Z,18.90
2022-10-31T11:47:15.813Z,19.01
2022-10-31T11:52:19.907Z,19.10
2022-10-31T11:57:27.581Z,19.18
2022-10-31T12:02:29.471Z,19.23
2022-10-31T12:07:31.705Z,19.34
2022-10-31T12:12:58.613Z,19.40
2022-10-31T12:18:12.595Z,19.50
2022-10-31T12:23:34.842Z,19.58
2022-10-31T12:28:55.259Z,19.64
2022-10-31T12:34:18.011Z,19.71
2022-10-31T12:39:35.260Z,19.77
2022-10-31T12:44:49.330Z,19.83
2022-10-31T12:49:51.083Z,19.89
2022-10-31T12:55:05.740Z,19.91
2022-10-31T13:00:17.083Z,19.93
2022-10-31T13:05:31.368Z,19.93
2022-10-31T13:10:44.518Z,19.93
2022-10-31T13:15:53.055Z,19.92
2022-10-31T13:20:56.865Z,19.89
2022-10-31T13:26:02.860Z,19.86
2022-10-31T13:31:04.889Z,19.87
2022-10-31T13:36:16.034Z,19.86
2022-10-31T13:41:40.177Z,19.82
2022-10-31T13:51:53.608Z,19.70
2022-10-31T13:56:55.433Z,19.63
2022-10-31T14:02:01.970Z,19.57
2022-10-31T14:07:19.349Z,19.49
2022-10-31T14:12:44.894Z,19.39
2022-10-31T14:17:53.810Z,19.28
2022-10-31T14:22:55.688Z,19.16
2022-10-31T14:27:58.813Z,19.04
2022-10-31T14:33:20.914Z,18.92
2022-10-31T14:38:29.165Z,18.78
2022-10-31T14:44:05.015Z,18.61
2022-10-31T14:49:12.919Z,18.42
2022-10-31T14:54:46.901Z,18.24
2022-10-31T15:00:09.812Z,18.00
2022-10-31T15:05:14.346Z,17.77
2022-10-31T15:10:27.683Z,17.53
2022-10-31T15:15:29.522Z,17.29
2022-10-31T15:20:44.013Z,17.04
2022-10-31T15:25:47.043Z,16.79
2022-10-31T15:31:01.051Z,16.55
2022-10-31T15:36:03.560Z,16.30
2022-10-31T15:41:21.018Z,16.07
2022-10-31T15:46:23.054Z,15.82
2022-10-31T15:51:33.417Z,15.58
2022-10-31T15:56:35.342Z,15.35
2022-10-31T16:01:37.256Z,15.13
2022-10-31T16:06:39.678Z,14.93
2022-10-31T16:11:42.369Z,14.74
2022-10-31T16:16:52.962Z,14.55
2022-10-31T16:22:13.285Z,14.37
2022-10-31T16:27:31.001Z,14.20
2022-10-31T16:32:37.443Z,14.04
2022-10-31T16:37:42.558Z,13.89
2022-10-31T16:42:46.003Z,13.75
2022-10-31T16:47:49.549Z,13.61
2022-10-31T16:58:24.215Z,13.33
2022-10-31T17:03:26.508Z,13.20
2022-10-31T17:08:28.346Z,13.06
2022-10-31T17:13:32.618Z,12.95
2022-10-31T17:18:34.432Z,12.84
2022-10-31T17:23:38.314Z,12.72
2022-10-31T17:28:40.268Z,12.61
2022-10-31T17:33:43.384Z,12.51
2022-10-31T17:38:45.170Z,12.41
2022-10-31T17:43:46.943Z,12.32
2022-10-31T17:48:48.780Z,12.24
2022-10-31T17:53:50.572Z,12.15
2022-10-31T17:58:52.467Z,12.07
2022-10-31T18:03:54.273Z,11.99
2022-10-31T18:08:58.210Z,11.91
2022-10-31T18:14:00.876Z,11.82
2022-10-31T18:19:05.475Z,11.74
2022-10-31T18:24:07.722Z,11.66
2022-10-31T18:29:11.910Z,11.58
2022-10-31T18:34:13.897Z,11.50
2022-10-31T18:39:15.966Z,11.42
2022-10-31T18:44:17.800Z,11.34
2022-10-31T18:49:22.819Z,11.27
2022-10-31T18:54:24.592Z,11.20
2022-10-31T18:59:26.432Z,11.13
2022-10-31T19:04:28.425Z,11.07
2022-10-31T19:09:31.872Z,11.00
2022-10-31T19:14:33.629Z,10.95
2022-10-31T19:19:35.739Z,10.90
2022-10-31T19:24:37.651Z,10.85
2022-10-31T19:29:42.184Z,10.76
2022-10-31T19:34:44.985Z,10.69
2022-10-31T19:39:46.879Z,10.64
2022-10-31T19:44:48.686Z,10.57
2022-10-31T19:49:50.901Z,10.51
2022-10-31T19:54:52.743Z,10.43
2022-10-31T19:59:54.574Z,10.38
2022-10-31T20:04:56.871Z,10.33
2022-10-31T20:09:58.612Z,10.29
2022-10-31T20:15:00.392Z,10.24
2022-10-31T20:20:07.230Z,10.17
2022-10-31T20:25:09.219Z,10.12
2022-10-31T20:30:11.927Z,10.06
2022-10-31T20:35:13.671Z,10.01
2022-10-31T20:40:15.547Z,9.96
2022-10-31T20:45:17.468Z,9.90
2022-10-31T20:50:19.330Z,9.86
2022-10-31T20:55:21.425Z,9.83
2022-10-31T21:00:23.246Z,9.79
2022-10-31T21:05:25.034Z,9.77
2022-10-31T21:10:26.765Z,9.74
2022-10-31T21:15:28.539Z,9.74
2022-10-31T21:20:30.302Z,9.73
2022-10-31T21:25:32.195Z,9.73
2022-10-31T21:30:34.952Z,9.70
2022-10-31T21:35:37.047Z,9.68
2022-10-31T21:40:38.843Z,9.65
2022-10-31T21:45:40.753Z,9.61
2022-10-31T21:50:42.551Z,9.57
2022-10-31T21:55:44.344Z,9.52
2022-10-31T22:00:46.215Z,9.49
2022-10-31T22:05:48.011Z,9.46
2022-10-31T22:10:49.829Z,9.45
2022-10-31T22:15:53.899Z,9.42
2022-10-31T22:21:02.001Z,9.39
2022-10-31T22:26:14.483Z,9.36
2022-10-31T22:31:18.511Z,9.32
2022-10-31T22:36:25.761Z,9.28
2022-10-31T22:41:33.202Z,9.24
2022-10-31T22:46:37.981Z,9.19
2022-10-31T22:51:41.106Z,9.15
2022-10-31T22:56:43.902Z,9.10
2022-10-31T23:01:46.216Z,9.04
2022-10-31T23:06:49.312Z,8.97
2022-10-31T23:11:51.068Z,8.92
2022-10-31T23:16:56.057Z,8.85
2022-10-31T23:22:04.225Z,8.78
2022-10-31T23:27:12.527Z,8.68
2022-10-31T23:32:27.150Z,8.57
2022-10-31T23:37:32.743Z,8.48
2022-10-31T23:42:34.801Z,8.36
2022-10-31T23:47:40.879Z,8.25
2022-10-31T23:52:45.153Z,8.14
2022-10-31T23:57:46.950Z,8.09
